Time;durP1;ratioP1;P1;durP2;ratioP2;P2;SDS_P1;SDS_P2;PMS_P1;PMS_P2;Temp;Humidity;BMP_temperature;BMP_pressure;BME280_temperature;BME280_humidity;BME280_pressure;Samples;Min_cycle;Max_cycle;Signal;HPM_P1;HPM_P2
2023/06/22 00:02:13;;;;;;;8.93;7.18;;;;;;;;;;5091555;28;20386;-79
2023/06/22 00:04:39;;;;;;;7.78;6.95;;;;;;;;;;5091495;28;20739;-79
2023/06/22 00:07:05;;;;;;;8.77;7.43;;;;;;;;;;5098229;28;20439;-79
2023/06/22 00:09:32;;;;;;;9.35;7.22;;;;;;;;;;5083747;28;20429;-79
2023/06/22 00:11:58;;;;;;;11.85;6.75;;;;;;;;;;5077570;28;20392;-79
2023/06/22 00:14:24;;;;;;;11.63;7.10;;;;;;;;;;5084631;28;20387;-79
2023/06/22 00:16:56;;;;;;;9.57;6.38;;;;;;;;;;5076038;28;20380;-79
2023/06/22 00:19:23;;;;;;;11.73;6.78;;;;;;;;;;5071048;28;20380;-79
2023/06/22 00:21:52;;;;;;;7.45;6.40;;;;;;;;;;5071309;28;20403;-79
2023/06/22 00:24:19;;;;;;;6.95;6.25;;;;;;;;;;5071251;28;20407;-79
2023/06/22 00:26:45;;;;;;;10.98;6.68;;;;;;;;;;5071235;28;20379;-79
2023/06/22 00:29:11;;;;;;;9.45;6.97;;;;;;;;;;5069709;28;20380;-79
2023/06/22 00:31:37;;;;;;;8.52;5.95;;;;;;;;;;5071210;28;20409;-79
2023/06/22 00:34:03;;;;;;;8.18;6.35;;;;;;;;;;5071081;28;20852;-79
2023/06/22 00:36:29;;;;;;;8.05;5.80;;;;;;;;;;5071062;28;20458;-79
2023/06/22 00:38:55;;;;;;;9.25;6.60;;;;;;;;;;5069676;28;20847;-79
2023/06/22 00:41:21;;;;;;;10.47;6.97;;;;;;;;;;5072943;28;20416;-79
2023/06/22 00:43:47;;;;;;;10.90;6.60;;;;;;;;;;5087084;28;20469;-79
2023/06/22 00:46:13;;;;;;;9.25;6.45;;;;;;;;;;5095174;28;20465;-79
2023/06/22 00:48:41;;;;;;;12.07;6.40;;;;;;;;;;5095106;28;20386;-79
2023/06/22 00:51:07;;;;;;;8.25;6.03;;;;;;;;;;5095196;28;20746;-79
2023/06/22 00:53:34;;;;;;;10.98;6.78;;;;;;;;;;5095011;28;20505;-79
2023/06/22 00:56:03;;;;;;;8.27;6.00;;;;;;;;;;5095051;28;20381;-79
2023/06/22 00:58:29;;;;;;;11.35;6.30;;;;;;;;;;5094848;28;20370;-79
2023/06/22 01:00:55;;;;;;;8.32;6.03;;;;;;;;;;5094932;28;20905;-79
2023/06/22 01:03:21;;;;;;;9.07;6.45;;;;;;;;;;5103536;28;20395;-79
2023/06/22 01:05:47;;;;;;;9.10;6.60;;;;;;;;;;5115208;28;20380;-79
2023/06/22 01:08:19;;;;;;;10.63;6.20;;;;;;;;;;5115272;28;20472;-79
2023/06/22 01:10:52;;;;;;;8.25;5.63;;;;;;;;;;5086506;28;20470;-79
2023/06/22 01:13:18;;;;;;;8.30;5.40;;;;;;;;;;5087998;28;20460;-79
2023/06/22 01:15:53;;;;;;;10.77;5.70;;;;;;;;;;5083032;28;20438;-79
2023/06/22 01:18:21;;;;;;;8.18;5.68;;;;;;;;;;5084167;28;20418;-79
2023/06/22 01:20:47;;;;;;;8.13;6.20;;;;;;;;;;5077281;28;20757;-79
2023/06/22 01:23:33;;;;;;;7.95;5.60;;;;;;;;;;5074067;28;20387;-79
2023/06/22 01:25:59;;;;;;;8.02;5.70;;;;;;;;;;5074059;28;20406;-79
2023/06/22 01:28:41;;;;;;;8.13;5.13;;;;;;;;;;5074313;28;20383;-79
2023/06/22 01:31:08;;;;;;;8.52;5.65;;;;;;;;;;5074343;28;20387;-79
2023/06/22 01:33:35;;;;;;;8.20;5.28;;;;;;;;;;5073949;28;20403;-79
2023/06/22 01:36:02;;;;;;;8.55;5.60;;;;;;;;;;5073912;28;20386;-79
2023/06/22 01:38:29;;;;;;;9.82;5.78;;;;;;;;;;5074052;28;20741;-80
2023/06/22 01:40:56;;;;;;;8.98;5.88;;;;;;;;;;5082044;28;20886;-80
2023/06/22 01:43:23;;;;;;;7.55;5.10;;;;;;;;;;5096747;28;20381;-80
2023/06/22 01:45:49;;;;;;;9.93;5.68;;;;;;;;;;5093317;28;20449;-79
2023/06/22 01:48:15;;;;;;;8.07;5.22;;;;;;;;;;5094057;28;20378;-79
2023/06/22 01:50:41;;;;;;;9.85;5.97;;;;;;;;;;5094124;28;20465;-80
2023/06/22 01:53:07;;;;;;;7.75;4.95;;;;;;;;;;5092798;28;20488;-79
2023/06/22 01:55:33;;;;;;;7.82;4.72;;;;;;;;;;5093864;28;20374;-79
2023/06/22 01:57:59;;;;;;;8.15;5.32;;;;;;;;;;5093930;28;20877;-79
2023/06/22 02:00:27;;;;;;;8.98;5.03;;;;;;;;;;5093783;28;20366;-79
2023/06/22 02:02:59;;;;;;;7.07;4.60;;;;;;;;;;5098168;28;20880;-80
2023/06/22 02:05:29;;;;;;;6.53;4.83;;;;;;;;;;5113987;28;20373;-80
2023/06/22 02:08:17;;;;;;;8.38;5.35;;;;;;;;;;5114077;28;20471;-80
2023/06/22 02:10:44;;;;;;;7.03;4.50;;;;;;;;;;5101143;28;20471;-80
2023/06/22 02:13:10;;;;;;;5.38;4.55;;;;;;;;;;5095421;28;20413;-79
2023/06/22 02:15:37;;;;;;;5.45;4.20;;;;;;;;;;5084592;28;20725;-80
2023/06/22 02:18:03;;;;;;;6.55;4.72;;;;;;;;;;5078528;28;20504;-79
2023/06/22 02:20:29;;;;;;;7.70;4.57;;;;;;;;;;5087822;28;20466;-79
2023/06/22 02:22:55;;;;;;;8.30;4.70;;;;;;;;;;5072959;28;20561;-79
2023/06/22 02:25:21;;;;;;;6.63;4.60;;;;;;;;;;5072992;28;20412;-79
2023/06/22 02:27:47;;;;;;;9.07;4.90;;;;;;;;;;5071736;28;20733;-79
2023/06/22 02:30:15;;;;;;;9.05;5.50;;;;;;;;;;5072957;28;20388;-80
2023/06/22 02:32:42;;;;;;;7.03;5.10;;;;;;;;;;5072703;28;20490;-80
2023/06/22 02:35:09;;;;;;;6.07;4.47;;;;;;;;;;5072982;28;20944;-80
2023/06/22 02:37:38;;;;;;;8.60;5.43;;;;;;;;;;5072865;28;20399;-80
2023/06/22 02:40:05;;;;;;;8.13;4.90;;;;;;;;;;5072885;28;20737;-80
2023/06/22 02:42:31;;;;;;;8.90;4.93;;;;;;;;;;5072542;28;20424;-80
2023/06/22 02:44:57;;;;;;;5.57;4.60;;;;;;;;;;5072686;28;20467;-80
2023/06/22 02:47:23;;;;;;;11.07;5.45;;;;;;;;;;5080329;28;20377;-80
2023/06/22 02:49:49;;;;;;;7.00;4.95;;;;;;;;;;5092859;28;20397;-79
2023/06/22 02:52:15;;;;;;;6.80;4.57;;;;;;;;;;5092659;28;20417;-80
2023/06/22 02:54:41;;;;;;;6.10;4.30;;;;;;;;;;5091700;28;20413;-80
2023/06/22 02:57:13;;;;;;;7.30;4.20;;;;;;;;;;5092717;28;20385;-80
2023/06/22 02:59:41;;;;;;;6.00;4.60;;;;;;;;;;5092733;28;20382;-80
2023/06/22 03:02:07;;;;;;;5.90;4.50;;;;;;;;;;5100645;28;20388;-79
2023/06/22 03:04:34;;;;;;;7.45;4.28;;;;;;;;;;5112892;28;20376;-80
2023/06/22 03:07:01;;;;;;;7.10;4.70;;;;;;;;;;5112941;28;20475;-79
2023/06/22 03:09:27;;;;;;;6.82;4.45;;;;;;;;;;5112696;28;20404;-79
2023/06/22 03:11:53;;;;;;;6.32;4.65;;;;;;;;;;5112861;28;20816;-79
2023/06/22 03:14:19;;;;;;;7.60;4.95;;;;;;;;;;5112685;28;20384;-79
2023/06/22 03:16:45;;;;;;;8.23;4.90;;;;;;;;;;5112819;28;20401;-80
2023/06/22 03:19:12;;;;;;;5.85;4.40;;;;;;;;;;5112474;28;20376;-79
2023/06/22 03:21:38;;;;;;;5.53;4.70;;;;;;;;;;5087227;28;20380;-79
2023/06/22 03:24:05;;;;;;;5.85;4.68;;;;;;;;;;5079937;28;20508;-80
2023/06/22 03:26:31;;;;;;;4.82;4.30;;;;;;;;;;5079422;28;20384;-79
2023/06/22 03:28:57;;;;;;;7.72;5.10;;;;;;;;;;5083898;28;20424;-79
2023/06/22 03:31:23;;;;;;;6.65;5.10;;;;;;;;;;5075695;28;20403;-80
2023/06/22 03:33:50;;;;;;;6.25;4.18;;;;;;;;;;5083456;28;20409;-80
2023/06/22 03:36:19;;;;;;;7.03;4.75;;;;;;;;;;5092029;28;20739;-79
2023/06/22 03:38:48;;;;;;;6.03;4.60;;;;;;;;;;5091880;28;20412;-79
2023/06/22 03:41:14;;;;;;;9.10;5.15;;;;;;;;;;5092044;28;20524;-79
2023/06/22 03:43:40;;;;;;;8.48;5.38;;;;;;;;;;5091730;28;20446;-79
2023/06/22 03:46:06;;;;;;;8.13;5.63;;;;;;;;;;5093928;28;20476;-79
2023/06/22 03:48:32;;;;;;;7.55;5.35;;;;;;;;;;5091633;28;20841;-79
2023/06/22 03:51:00;;;;;;;8.48;5.22;;;;;;;;;;5091910;28;20482;-79
2023/06/22 03:53:26;;;;;;;7.25;5.28;;;;;;;;;;5091711;28;20429;-80
2023/06/22 03:55:52;;;;;;;8.63;5.72;;;;;;;;;;5091788;28;20366;-79
2023/06/22 03:58:20;;;;;;;8.40;5.70;;;;;;;;;;5103878;28;20380;-79
2023/06/22 04:00:50;;;;;;;7.13;5.20;;;;;;;;;;5112154;28;20443;-79
2023/06/22 04:03:18;;;;;;;10.03;5.40;;;;;;;;;;5111901;28;20471;-79
2023/06/22 04:05:44;;;;;;;7.53;5.32;;;;;;;;;;5111993;28;20379;-79
2023/06/22 04:08:10;;;;;;;7.03;5.30;;;;;;;;;;5110323;28;20377;-80
2023/06/22 04:10:36;;;;;;;8.00;5.50;;;;;;;;;;5111851;28;20733;-79
2023/06/22 04:13:02;;;;;;;8.37;5.47;;;;;;;;;;5111777;28;20401;-79
2023/06/22 04:15:28;;;;;;;10.85;6.30;;;;;;;;;;5111336;28;20483;-79
2023/06/22 04:17:55;;;;;;;8.52;5.93;;;;;;;;;;5111655;28;20372;-79
2023/06/22 04:20:22;;;;;;;10.15;6.60;;;;;;;;;;5111839;28;20372;-79
2023/06/22 04:22:47;;;;;;;8.93;6.10;;;;;;;;;;5111760;28;20433;-79
2023/06/22 04:25:14;;;;;;;7.78;5.70;;;;;;;;;;5086161;28;20419;-79
2023/06/22 04:27:40;;;;;;;7.82;5.82;;;;;;;;;;5084952;28;20386;-79
2023/06/22 04:30:07;;;;;;;6.27;5.33;;;;;;;;;;5090497;28;20374;-79
2023/06/22 04:32:33;;;;;;;8.10;5.90;;;;;;;;;;5077087;28;20476;-79
2023/06/22 04:35:04;;;;;;;10.07;6.60;;;;;;;;;;5085144;28;20382;-79
2023/06/22 04:37:30;;;;;;;7.78;6.60;;;;;;;;;;5089857;28;20461;-79
2023/06/22 04:39:56;;;;;;;7.60;6.15;;;;;;;;;;5091249;28;20519;-79
2023/06/22 04:42:22;;;;;;;6.63;6.00;;;;;;;;;;5091175;28;20850;-79
2023/06/22 04:44:48;;;;;;;7.97;5.90;;;;;;;;;;5090973;28;20382;-79
2023/06/22 04:47:14;;;;;;;9.43;6.27;;;;;;;;;;5090041;28;20863;-79
2023/06/22 04:49:43;;;;;;;6.70;5.43;;;;;;;;;;5091147;28;20396;-79
2023/06/22 04:52:09;;;;;;;7.03;5.40;;;;;;;;;;5090529;28;20392;-79
2023/06/22 04:54:36;;;;;;;7.88;5.93;;;;;;;;;;5090987;28;20404;-79
2023/06/22 04:57:09;;;;;;;7.85;5.53;;;;;;;;;;5090996;28;20377;-79
2023/06/22 04:59:35;;;;;;;8.15;5.60;;;;;;;;;;5091083;28;20396;-79
2023/06/22 05:02:02;;;;;;;7.10;5.60;;;;;;;;;;5091112;28;20388;-79
2023/06/22 05:04:31;;;;;;;7.95;5.68;;;;;;;;;;5090866;28;20425;-79
2023/06/22 05:06:57;;;;;;;9.13;6.20;;;;;;;;;;5091019;28;20402;-79
2023/06/22 05:09:24;;;;;;;7.80;5.95;;;;;;;;;;5100689;28;20733;-79
2023/06/22 05:11:50;;;;;;;8.23;6.28;;;;;;;;;;5111317;28;20369;-79
2023/06/22 05:14:16;;;;;;;7.77;6.03;;;;;;;;;;5110942;28;20403;-79
2023/06/22 05:16:43;;;;;;;7.78;5.88;;;;;;;;;;5111099;28;20854;-79
2023/06/22 05:19:09;;;;;;;7.00;5.78;;;;;;;;;;5111222;28;20472;-79
2023/06/22 05:21:35;;;;;;;7.30;5.85;;;;;;;;;;5111199;28;20384;-79
2023/06/22 05:24:02;;;;;;;8.75;5.88;;;;;;;;;;5110787;28;20451;-79
2023/06/22 05:26:29;;;;;;;7.65;5.78;;;;;;;;;;5107722;28;20468;-79
2023/06/22 05:28:55;;;;;;;9.30;6.32;;;;;;;;;;5091484;28;20374;-79
2023/06/22 05:31:21;;;;;;;6.63;5.40;;;;;;;;;;5075745;28;20429;-79
2023/06/22 05:33:47;;;;;;;8.32;5.75;;;;;;;;;;5092351;28;20881;-80
2023/06/22 05:36:13;;;;;;;8.23;5.57;;;;;;;;;;5080431;28;20374;-79
2023/06/22 05:38:40;;;;;;;6.80;5.40;;;;;;;;;;5077201;28;20760;-79
2023/06/22 05:41:06;;;;;;;6.63;5.68;;;;;;;;;;5074111;28;20380;-79
2023/06/22 05:43:32;;;;;;;8.13;6.10;;;;;;;;;;5073665;28;20379;-79
2023/06/22 05:45:58;;;;;;;6.28;5.05;;;;;;;;;;5092375;28;20804;-80
2023/06/22 05:48:24;;;;;;;7.35;6.07;;;;;;;;;;5097198;28;20445;-79
2023/06/22 05:50:50;;;;;;;7.10;5.85;;;;;;;;;;5114365;28;20380;-80
2023/06/22 05:53:16;;;;;;;6.65;5.60;;;;;;;;;;5114066;28;20453;-80
2023/06/22 05:55:42;;;;;;;9.48;6.47;;;;;;;;;;5114121;28;20408;-80
2023/06/22 05:58:09;;;;;;;6.80;5.93;;;;;;;;;;5114192;28;20402;-79
2023/06/22 06:00:35;;;;;;;6.88;5.70;;;;;;;;;;5114187;28;20855;-80
2023/06/22 06:03:04;;;;;;;8.93;7.43;;;;;;;;;;5113794;28;20416;-80
2023/06/22 06:05:30;;;;;;;9.60;6.20;;;;;;;;;;5114132;28;20372;-80
2023/06/22 06:07:56;;;;;;;9.73;6.32;;;;;;;;;;5114115;28;20386;-80
2023/06/22 06:10:22;;;;;;;7.95;6.55;;;;;;;;;;5113864;28;20464;-80
2023/06/22 06:12:48;;;;;;;7.37;5.70;;;;;;;;;;5113849;28;20400;-80
2023/06/22 06:15:14;;;;;;;7.50;6.50;;;;;;;;;;5113892;28;20379;-80
2023/06/22 06:17:58;;;;;;;7.80;6.78;;;;;;;;;;5114019;28;20403;-80
2023/06/22 06:20:26;;;;;;;7.55;6.50;;;;;;;;;;5113790;28;20373;-80
2023/06/22 06:22:52;;;;;;;7.30;6.05;;;;;;;;;;5113743;28;20399;-80
2023/06/22 06:25:20;;;;;;;9.70;6.73;;;;;;;;;;5113779;28;20431;-80
2023/06/22 06:27:49;;;;;;;7.88;6.22;;;;;;;;;;5113934;28;20381;-80
2023/06/22 06:30:16;;;;;;;8.10;6.10;;;;;;;;;;5113551;28;20400;-80
2023/06/22 06:32:45;;;;;;;7.53;6.53;;;;;;;;;;5094325;28;20407;-80
2023/06/22 06:35:11;;;;;;;8.65;6.50;;;;;;;;;;5084627;28;20383;-80
2023/06/22 06:37:38;;;;;;;10.27;6.68;;;;;;;;;;5078087;28;20864;-80
2023/06/22 06:40:06;;;;;;;11.52;7.53;;;;;;;;;;5076548;28;20520;-80
2023/06/22 06:42:32;;;;;;;9.70;6.90;;;;;;;;;;5086983;28;20382;-80
2023/06/22 06:44:58;;;;;;;7.05;6.20;;;;;;;;;;5092956;28;20397;-80
2023/06/22 06:47:24;;;;;;;7.50;6.55;;;;;;;;;;5092907;28;20386;-80
2023/06/22 06:49:50;;;;;;;9.75;6.32;;;;;;;;;;5092746;28;20796;-80
2023/06/22 06:52:16;;;;;;;9.00;5.93;;;;;;;;;;5092751;28;20493;-80
2023/06/22 06:54:42;;;;;;;8.23;6.97;;;;;;;;;;5092775;28;20374;-79
2023/06/22 06:57:10;;;;;;;7.57;6.87;;;;;;;;;;5091459;28;20390;-80
2023/06/22 06:59:36;;;;;;;9.75;6.70;;;;;;;;;;5092693;28;20374;-80
2023/06/22 07:02:02;;;;;;;8.98;6.85;;;;;;;;;;5092077;28;20427;-80
2023/06/22 07:04:28;;;;;;;9.88;6.53;;;;;;;;;;5092580;28;20382;-80
2023/06/22 07:06:54;;;;;;;9.63;6.68;;;;;;;;;;5092528;28;20382;-80
2023/06/22 07:09:20;;;;;;;13.77;9.07;;;;;;;;;;5092442;28;20439;-80
2023/06/22 07:11:46;;;;;;;9.25;6.55;;;;;;;;;;5092551;28;20871;-80
2023/06/22 07:14:12;;;;;;;9.15;6.75;;;;;;;;;;5092346;28;20459;-80
2023/06/22 07:16:38;;;;;;;9.90;6.80;;;;;;;;;;5105143;28;20392;-80
2023/06/22 07:19:04;;;;;;;9.60;7.50;;;;;;;;;;5112628;28;20459;-80
2023/06/22 07:21:30;;;;;;;8.23;6.97;;;;;;;;;;5112703;28;20421;-80
2023/06/22 07:23:56;;;;;;;7.97;6.80;;;;;;;;;;5112487;28;20868;-80
2023/06/22 07:26:22;;;;;;;9.25;7.13;;;;;;;;;;5112493;28;20380;-80
2023/06/22 07:28:50;;;;;;;9.45;6.53;;;;;;;;;;5109162;28;20378;-81
2023/06/22 07:31:16;;;;;;;6.32;5.72;;;;;;;;;;5112607;28;20734;-81
2023/06/22 07:33:42;;;;;;;10.98;7.20;;;;;;;;;;5112301;28;20400;-81
2023/06/22 07:36:08;;;;;;;7.38;6.63;;;;;;;;;;5092574;28;20378;-81
2023/06/22 07:38:35;;;;;;;9.80;7.40;;;;;;;;;;5074208;28;20886;-81
2023/06/22 07:41:01;;;;;;;8.18;6.78;;;;;;;;;;5088398;28;20463;-80
2023/06/22 07:43:27;;;;;;;7.60;6.80;;;;;;;;;;5088533;28;20374;-80
2023/06/22 07:45:54;;;;;;;10.63;7.45;;;;;;;;;;5080089;28;20394;-81
2023/06/22 07:48:23;;;;;;;7.40;6.47;;;;;;;;;;5071521;28;20467;-81
2023/06/22 07:50:49;;;;;;;10.13;7.10;;;;;;;;;;5093492;28;20473;-80
2023/06/22 07:53:16;;;;;;;8.80;7.07;;;;;;;;;;5091624;28;20480;-80
2023/06/22 07:55:42;;;;;;;10.25;6.90;;;;;;;;;;5091788;28;20866;-80
2023/06/22 07:58:08;;;;;;;8.55;7.38;;;;;;;;;;5090247;28;20435;-80
2023/06/22 08:00:34;;;;;;;9.38;6.80;;;;;;;;;;5091613;28;20390;-80
2023/06/22 08:03:03;;;;;;;8.45;6.20;;;;;;;;;;5091533;28;20451;-80
2023/06/22 08:05:30;;;;;;;8.45;5.93;;;;;;;;;;5091557;28;20739;-80
2023/06/22 08:07:56;;;;;;;9.77;6.68;;;;;;;;;;5091499;28;20412;-80
2023/06/22 08:10:22;;;;;;;8.35;6.85;;;;;;;;;;5091516;28;20385;-80
2023/06/22 08:12:48;;;;;;;9.60;7.55;;;;;;;;;;5091429;28;20398;-80
2023/06/22 08:15:14;;;;;;;9.20;6.97;;;;;;;;;;5091240;28;20404;-80
2023/06/22 08:17:40;;;;;;;11.52;7.68;;;;;;;;;;5091401;28;20375;-80
2023/06/22 08:20:10;;;;;;;9.38;7.68;;;;;;;;;;5091400;28;20370;-80
2023/06/22 08:22:36;;;;;;;8.77;7.88;;;;;;;;;;5091414;28;20886;-80
2023/06/22 08:25:03;;;;;;;10.07;7.10;;;;;;;;;;5090955;28;20405;-80
2023/06/22 08:27:33;;;;;;;6.72;5.80;;;;;;;;;;5091518;28;20475;-80
2023/06/22 08:30:00;;;;;;;7.30;6.40;;;;;;;;;;5091348;28;20568;-80
2023/06/22 08:32:29;;;;;;;9.25;6.50;;;;;;;;;;5091204;28;20488;-80
2023/06/22 08:34:56;;;;;;;8.60;6.33;;;;;;;;;;5089668;28;20961;-80
2023/06/22 08:37:30;;;;;;;11.17;6.40;;;;;;;;;;5081643;28;20468;-81
2023/06/22 08:39:57;;;;;;;6.03;5.43;;;;;;;;;;5075893;28;20387;-81
2023/06/22 08:42:24;;;;;;;9.25;6.35;;;;;;;;;;5071171;28;20872;-81
2023/06/22 08:44:51;;;;;;;9.77;6.67;;;;;;;;;;5072314;28;20388;-80
2023/06/22 08:47:17;;;;;;;9.10;6.22;;;;;;;;;;5071081;28;20390;-80
2023/06/22 08:49:42;;;;;;;6.50;5.88;;;;;;;;;;5071063;28;20388;-81
2023/06/22 08:52:09;;;;;;;6.63;5.50;;;;;;;;;;5069497;28;20406;-81
2023/06/22 08:54:34;;;;;;;7.33;5.77;;;;;;;;;;5070828;28;20421;-81
2023/06/22 08:57:01;;;;;;;9.27;5.80;;;;;;;;;;5070919;28;20403;-81
2023/06/22 08:59:27;;;;;;;8.35;5.70;;;;;;;;;;5070922;28;20455;-81
2023/06/22 09:01:53;;;;;;;8.95;6.15;;;;;;;;;;5070722;28;20794;-81
2023/06/22 09:04:21;;;;;;;11.05;7.55;;;;;;;;;;5076962;28;20400;-81
2023/06/22 09:06:47;;;;;;;7.82;6.43;;;;;;;;;;5074629;28;20379;-81
2023/06/22 09:09:14;;;;;;;10.48;7.07;;;;;;;;;;5074574;28;20456;-81
2023/06/22 09:11:40;;;;;;;10.43;6.47;;;;;;;;;;5074393;28;20380;-81
2023/06/22 09:14:06;;;;;;;9.27;6.05;;;;;;;;;;5074265;28;20399;-81
2023/06/22 09:16:33;;;;;;;7.35;6.55;;;;;;;;;;5074525;28;20396;-81
2023/06/22 09:18:59;;;;;;;9.70;6.20;;;;;;;;;;5076920;28;20444;-81
2023/06/22 09:21:25;;;;;;;12.88;7.47;;;;;;;;;;5074260;28;20375;-81
2023/06/22 09:23:51;;;;;;;10.43;7.75;;;;;;;;;;5073994;28;20411;-81
2023/06/22 09:26:20;;;;;;;10.60;6.22;;;;;;;;;;5074240;28;20372;-81
2023/06/22 09:28:46;;;;;;;7.97;5.53;;;;;;;;;;5074026;28;20475;-81
2023/06/22 09:31:12;;;;;;;8.80;6.25;;;;;;;;;;5089301;28;20378;-81
2023/06/22 09:33:38;;;;;;;7.07;6.13;;;;;;;;;;5094098;28;20910;-81
2023/06/22 09:36:07;;;;;;;8.97;6.00;;;;;;;;;;5094355;28;20374;-81
2023/06/22 09:38:35;;;;;;;8.30;5.55;;;;;;;;;;5079048;28;20434;-81
2023/06/22 09:41:01;;;;;;;8.07;6.47;;;;;;;;;;5089714;28;20380;-81
2023/06/22 09:43:27;;;;;;;7.90;6.18;;;;;;;;;;5083160;28;20382;-82
2023/06/22 09:45:53;;;;;;;8.00;6.30;;;;;;;;;;5085483;28;20536;-80
2023/06/22 09:48:19;;;;;;;8.13;5.65;;;;;;;;;;5099893;28;20382;-80
2023/06/22 09:50:45;;;;;;;7.43;5.90;;;;;;;;;;5094063;28;20871;-80
2023/06/22 09:53:11;;;;;;;8.05;6.38;;;;;;;;;;5093686;28;20410;-80
2023/06/22 09:55:37;;;;;;;7.65;6.03;;;;;;;;;;5091648;28;20378;-80
2023/06/22 09:58:03;;;;;;;9.40;5.93;;;;;;;;;;5093851;28;20759;-80
2023/06/22 10:00:29;;;;;;;7.07;5.80;;;;;;;;;;5093837;28;20378;-80
2023/06/22 10:02:55;;;;;;;8.63;5.90;;;;;;;;;;5093799;28;20863;-80
2023/06/22 10:05:22;;;;;;;6.82;5.68;;;;;;;;;;5093715;28;20379;-80
2023/06/22 10:07:48;;;;;;;8.32;5.88;;;;;;;;;;5093603;28;20385;-80
2023/06/22 10:10:15;;;;;;;6.25;5.63;;;;;;;;;;5093739;28;20405;-80
2023/06/22 10:12:48;;;;;;;10.15;7.15;;;;;;;;;;5092150;28;20406;-80
2023/06/22 10:15:14;;;;;;;12.07;7.75;;;;;;;;;;5092898;28;20492;-80
2023/06/22 10:17:40;;;;;;;13.80;9.35;;;;;;;;;;5093494;28;20374;-80
2023/06/22 10:20:11;;;;;;;10.77;8.40;;;;;;;;;;5093381;28;20370;-80
2023/06/22 10:22:37;;;;;;;8.02;6.28;;;;;;;;;;5093728;28;20414;-80
2023/06/22 10:25:03;;;;;;;10.60;6.70;;;;;;;;;;5093175;28;20410;-80
2023/06/22 10:27:29;;;;;;;9.35;6.30;;;;;;;;;;5091921;28;20799;-80
2023/06/22 10:29:55;;;;;;;9.82;6.47;;;;;;;;;;5093222;28;20385;-80
2023/06/22 10:32:21;;;;;;;10.30;6.10;;;;;;;;;;5093189;28;20728;-80
2023/06/22 10:34:47;;;;;;;8.63;5.50;;;;;;;;;;5091842;28;20413;-80
2023/06/22 10:37:13;;;;;;;11.13;5.70;;;;;;;;;;5093205;28;20835;-80
2023/06/22 10:39:39;;;;;;;8.68;5.38;;;;;;;;;;5084884;28;20389;-80
2023/06/22 10:42:05;;;;;;;8.55;5.60;;;;;;;;;;5076796;28;20505;-80
2023/06/22 10:44:31;;;;;;;9.52;5.43;;;;;;;;;;5088038;28;20393;-80
2023/06/22 10:46:57;;;;;;;7.75;5.68;;;;;;;;;;5077908;28;20371;-80
2023/06/22 10:49:23;;;;;;;9.20;5.75;;;;;;;;;;5092318;28;20382;-80
2023/06/22 10:51:49;;;;;;;10.50;6.28;;;;;;;;;;5092864;28;20370;-80
2023/06/22 10:54:18;;;;;;;7.95;5.82;;;;;;;;;;5092600;28;20500;-80
2023/06/22 10:56:44;;;;;;;10.98;5.47;;;;;;;;;;5092277;28;20382;-80
2023/06/22 10:59:10;;;;;;;7.50;5.75;;;;;;;;;;5092675;28;20385;-80
2023/06/22 11:01:36;;;;;;;9.93;6.97;;;;;;;;;;5092725;28;20865;-80
2023/06/22 11:04:02;;;;;;;9.32;6.70;;;;;;;;;;5092473;28;20389;-80
2023/06/22 11:06:28;;;;;;;7.82;5.82;;;;;;;;;;5092609;28;20390;-80
2023/06/22 11:08:54;;;;;;;7.87;6.00;;;;;;;;;;5092486;28;20374;-80
2023/06/22 11:11:20;;;;;;;9.43;5.97;;;;;;;;;;5094135;28;20740;-80
2023/06/22 11:13:46;;;;;;;10.60;6.50;;;;;;;;;;5111348;28;20400;-80
2023/06/22 11:16:12;;;;;;;9.40;5.90;;;;;;;;;;5112690;28;20395;-80
2023/06/22 11:18:38;;;;;;;9.15;5.95;;;;;;;;;;5112699;28;20739;-80
2023/06/22 11:21:04;;;;;;;12.27;6.13;;;;;;;;;;5112690;28;20380;-80
2023/06/22 11:23:30;;;;;;;9.05;6.07;;;;;;;;;;5112257;28;20477;-80
2023/06/22 11:25:56;;;;;;;11.10;6.45;;;;;;;;;;5112645;28;20452;-80
2023/06/22 11:28:22;;;;;;;10.07;6.07;;;;;;;;;;5112419;28;20873;-80
2023/06/22 11:30:48;;;;;;;11.90;5.97;;;;;;;;;;5111137;28;20745;-80
2023/06/22 11:33:14;;;;;;;9.40;6.07;;;;;;;;;;5112148;28;20450;-80
2023/06/22 11:35:40;;;;;;;10.25;6.13;;;;;;;;;;5112424;28;20873;-80
2023/06/22 11:38:07;;;;;;;10.52;6.30;;;;;;;;;;5112248;28;20381;-80
2023/06/22 11:40:33;;;;;;;10.27;5.80;;;;;;;;;;5093381;28;20798;-80
2023/06/22 11:42:59;;;;;;;11.40;5.88;;;;;;;;;;5093085;28;20471;-80
2023/06/22 11:45:25;;;;;;;12.10;5.90;;;;;;;;;;5079361;28;20383;-80
2023/06/22 11:47:51;;;;;;;11.48;6.25;;;;;;;;;;5089004;28;20379;-80
2023/06/22 11:50:17;;;;;;;9.80;5.93;;;;;;;;;;5091435;28;20378;-80
2023/06/22 11:52:43;;;;;;;12.13;6.10;;;;;;;;;;5091592;28;20398;-80
2023/06/22 11:55:09;;;;;;;11.90;5.57;;;;;;;;;;5091733;28;20454;-80
2023/06/22 11:57:38;;;;;;;7.85;5.40;;;;;;;;;;5101991;28;20773;-80
2023/06/22 12:00:16;;;;;;;13.68;5.85;;;;;;;;;;5111992;28;20380;-80
2023/06/22 12:02:42;;;;;;;9.80;6.55;;;;;;;;;;5111979;28;20837;-79
2023/06/22 12:05:08;;;;;;;9.13;6.45;;;;;;;;;;5111978;28;20379;-80
2023/06/22 12:07:34;;;;;;;11.55;6.78;;;;;;;;;;5110809;28;20857;-80
2023/06/22 12:10:01;;;;;;;11.10;6.38;;;;;;;;;;5111921;28;20388;-79
2023/06/22 12:12:27;;;;;;;9.23;5.80;;;;;;;;;;5111685;28;20376;-80
2023/06/22 12:14:53;;;;;;;9.05;6.03;;;;;;;;;;5111549;28;20384;-80
2023/06/22 12:17:19;;;;;;;10.80;6.07;;;;;;;;;;5111768;28;20380;-80
2023/06/22 12:19:45;;;;;;;11.13;5.97;;;;;;;;;;5111851;28;20911;-80
2023/06/22 12:22:11;;;;;;;10.63;5.22;;;;;;;;;;5111586;28;20380;-80
2023/06/22 12:24:37;;;;;;;11.90;5.30;;;;;;;;;;5111486;28;20735;-80
2023/06/22 12:27:03;;;;;;;8.00;5.60;;;;;;;;;;5110364;28;20401;-80
2023/06/22 12:29:29;;;;;;;9.95;5.45;;;;;;;;;;5111741;28;20389;-80
2023/06/22 12:31:55;;;;;;;8.15;5.80;;;;;;;;;;5110165;28;20419;-80
2023/06/22 12:34:21;;;;;;;8.82;5.78;;;;;;;;;;5111355;28;20875;-80
2023/06/22 12:36:49;;;;;;;11.13;5.75;;;;;;;;;;5112506;28;20378;-80
2023/06/22 12:39:15;;;;;;;9.43;6.10;;;;;;;;;;5115823;28;20408;-80
2023/06/22 12:41:41;;;;;;;7.43;5.72;;;;;;;;;;5115635;28;20836;-80
2023/06/22 12:44:07;;;;;;;10.50;5.50;;;;;;;;;;5112906;28;20441;-80
2023/06/22 12:46:37;;;;;;;8.82;5.57;;;;;;;;;;5079764;28;20781;-82
2023/06/22 12:49:06;;;;;;;7.78;5.13;;;;;;;;;;5086779;28;20375;-79
2023/06/22 12:51:32;;;;;;;8.93;5.60;;;;;;;;;;5085187;28;20385;-79
2023/06/22 12:53:58;;;;;;;11.73;6.18;;;;;;;;;;5088890;28;20492;-79
2023/06/22 12:56:24;;;;;;;9.47;6.10;;;;;;;;;;5073501;28;20437;-79
2023/06/22 12:58:50;;;;;;;7.50;6.00;;;;;;;;;;5074746;28;20399;-79
2023/06/22 13:01:18;;;;;;;7.97;5.70;;;;;;;;;;5094357;28;20461;-79
2023/06/22 13:03:43;;;;;;;10.23;6.03;;;;;;;;;;5095154;28;20386;-79
2023/06/22 13:06:09;;;;;;;7.65;5.85;;;;;;;;;;5095020;28;20893;-79
2023/06/22 13:08:35;;;;;;;9.63;5.90;;;;;;;;;;5094732;28;20500;-79
2023/06/22 13:11:01;;;;;;;9.70;5.85;;;;;;;;;;5094840;28;20489;-80
2023/06/22 13:13:27;;;;;;;12.63;5.82;;;;;;;;;;5094651;28;20402;-81
2023/06/22 13:15:53;;;;;;;7.90;5.55;;;;;;;;;;5097055;28;20471;-80
2023/06/22 13:18:20;;;;;;;8.27;5.97;;;;;;;;;;5112897;28;20492;-80
2023/06/22 13:20:46;;;;;;;7.43;5.60;;;;;;;;;;5114014;28;20384;-81
2023/06/22 13:23:12;;;;;;;11.52;5.65;;;;;;;;;;5114507;28;20463;-81
2023/06/22 13:25:38;;;;;;;6.82;5.53;;;;;;;;;;5114849;28;20884;-81
2023/06/22 13:28:04;;;;;;;7.95;5.30;;;;;;;;;;5114733;28;20380;-81
2023/06/22 13:30:31;;;;;;;10.02;5.78;;;;;;;;;;5114816;28;20394;-81
2023/06/22 13:32:57;;;;;;;8.27;5.32;;;;;;;;;;5114625;27;20415;-81
2023/06/22 13:35:23;;;;;;;7.93;5.40;;;;;;;;;;5114647;28;21011;-81
2023/06/22 13:37:49;;;;;;;9.13;5.30;;;;;;;;;;5113220;28;20742;-81
2023/06/22 13:40:15;;;;;;;8.15;5.10;;;;;;;;;;5114559;28;20373;-81
2023/06/22 13:42:41;;;;;;;7.50;5.60;;;;;;;;;;5106839;28;20409;-81
2023/06/22 13:45:08;;;;;;;12.20;5.68;;;;;;;;;;5114372;28;20376;-81
2023/06/22 13:47:34;;;;;;;12.85;5.97;;;;;;;;;;5111141;28;20384;-81
2023/06/22 13:50:00;;;;;;;11.97;5.90;;;;;;;;;;5101565;28;20443;-81
2023/06/22 13:52:26;;;;;;;11.47;5.27;;;;;;;;;;5100938;28;20928;-81
2023/06/22 13:54:52;;;;;;;11.50;5.45;;;;;;;;;;5099868;28;20370;-80
2023/06/22 13:57:18;;;;;;;9.07;5.47;;;;;;;;;;5086102;28;20508;-81
2023/06/22 13:59:44;;;;;;;11.15;5.55;;;;;;;;;;5091498;28;20882;-80
2023/06/22 14:02:10;;;;;;;9.47;4.73;;;;;;;;;;5093782;28;20389;-81
2023/06/22 14:04:36;;;;;;;8.87;4.67;;;;;;;;;;5093657;28;20851;-80
2023/06/22 14:07:02;;;;;;;8.23;4.60;;;;;;;;;;5093622;28;20382;-81
2023/06/22 14:09:28;;;;;;;12.50;5.00;;;;;;;;;;5093584;28;20870;-80
2023/06/22 14:11:55;;;;;;;11.13;4.47;;;;;;;;;;5093667;28;20447;-80
2023/06/22 14:14:21;;;;;;;8.18;4.80;;;;;;;;;;5093515;28;20913;-80
2023/06/22 14:16:49;;;;;;;9.15;4.20;;;;;;;;;;5093437;28;20370;-81
2023/06/22 14:19:18;;;;;;;11.98;4.47;;;;;;;;;;5093390;28;20370;-80
2023/06/22 14:21:44;;;;;;;8.95;4.75;;;;;;;;;;5093804;28;20382;-80
2023/06/22 14:24:10;;;;;;;8.70;4.50;;;;;;;;;;5093108;28;20497;-80
2023/06/22 14:26:36;;;;;;;9.18;4.10;;;;;;;;;;5093220;28;20378;-81
2023/06/22 14:29:02;;;;;;;8.10;4.28;;;;;;;;;;5093155;28;20862;-81
2023/06/22 14:31:28;;;;;;;10.95;4.80;;;;;;;;;;5093284;28;20504;-80
2023/06/22 14:33:54;;;;;;;8.20;4.47;;;;;;;;;;5093016;28;20959;-80
2023/06/22 14:36:20;;;;;;;8.85;4.25;;;;;;;;;;5091540;28;20382;-80
2023/06/22 14:38:46;;;;;;;10.70;4.30;;;;;;;;;;5093066;28;20874;-80